createdAt,value
2022-11-29T00:01:46.457Z,998.22
2022-11-29T00:07:31.848Z,998.21
2022-11-29T00:13:16.240Z,998.19
2022-11-29T00:18:59.281Z,998.14
2022-11-29T00:24:42.850Z,998.2
2022-11-29T00:30:26.980Z,998.27
2022-11-29T00:36:10.525Z,998.35
2022-11-29T00:41:53.363Z,998.28
2022-11-29T00:47:36.195Z,998.28
2022-11-29T00:53:19.256Z,998.32
2022-11-29T00:59:02.265Z,998.32
2022-11-29T01:04:45.744Z,998.35
2022-11-29T01:10:29.089Z,998.39
2022-11-29T01:16:12.188Z,998.39
2022-11-29T01:21:55.359Z,998.4
2022-11-29T01:27:38.293Z,998.48
2022-11-29T01:33:23.632Z,998.5
2022-11-29T01:39:07.174Z,998.52
2022-11-29T01:45:15.877Z,998.44
2022-11-29T01:51:00.401Z,998.5
2022-11-29T01:56:44.745Z,998.67
2022-11-29T02:02:29.877Z,998.66
2022-11-29T02:08:14.561Z,998.73
2022-11-29T02:14:02.986Z,998.76
2022-11-29T02:19:57.516Z,998.76
2022-11-29T02:25:49.413Z,998.74
2022-11-29T02:31:41.687Z,998.67
2022-11-29T02:37:37.064Z,998.72
2022-11-29T02:43:31.508Z,998.8
2022-11-29T02:49:20.154Z,998.82
2022-11-29T02:55:07.120Z,998.89
2022-11-29T03:00:56.065Z,998.93
2022-11-29T03:06:43.982Z,998.96
2022-11-29T03:12:32.294Z,999.02
2022-11-29T03:18:23.820Z,999.1
2022-11-29T03:24:10.060Z,999.05
2022-11-29T03:29:56.804Z,999.12
2022-11-29T03:35:41.697Z,999.14
2022-11-29T03:41:26.336Z,999.15
2022-11-29T03:47:13.471Z,999.29
2022-11-29T03:52:58.785Z,999.41
2022-11-29T03:58:49.006Z,999.47
2022-11-29T04:04:43.380Z,999.53
2022-11-29T04:10:36.415Z,999.49
2022-11-29T04:16:34.029Z,999.56
2022-11-29T04:22:33.681Z,999.58
2022-11-29T04:28:28.606Z,999.62
2022-11-29T04:34:18.697Z,999.64
2022-11-29T04:40:06.017Z,999.68
2022-11-29T04:46:00.370Z,999.76
2022-11-29T04:51:51.584Z,999.86
2022-11-29T04:57:37.991Z,999.9
2022-11-29T05:03:25.952Z,999.91
2022-11-29T05:09:14.385Z,999.99
2022-11-29T05:15:04.642Z,999.97
2022-11-29T05:20:49.227Z,1000.02
2022-11-29T05:26:34.534Z,1000.1
2022-11-29T05:32:28.274Z,1000.17
2022-11-29T05:38:17.120Z,1000.26
2022-11-29T05:44:07.765Z,1000.35
2022-11-29T05:49:57.374Z,1000.36
2022-11-29T05:55:45.510Z,1000.41
2022-11-29T06:01:30.494Z,1000.51
2022-11-29T06:07:17.442Z,1000.6
2022-11-29T06:13:05.563Z,1000.71
2022-11-29T06:19:02.496Z,1000.78
2022-11-29T06:24:53.398Z,1000.86
2022-11-29T06:30:42.170Z,1000.92
2022-11-29T06:36:28.307Z,1000.95
2022-11-29T06:42:12.509Z,1001.05
2022-11-29T06:47:58.377Z,1001.08
2022-11-29T06:53:44.345Z,1001.24
2022-11-29T06:59:35.527Z,1001.31
2022-11-29T07:05:24.375Z,1001.45
2022-11-29T07:11:09.975Z,1001.47
2022-11-29T07:16:58.713Z,1001.5
2022-11-29T07:22:48.328Z,1001.55
2022-11-29T07:28:39.151Z,1001.63
2022-11-29T07:34:26.250Z,1001.71
2022-11-29T07:40:14.570Z,1001.74
2022-11-29T07:45:57.872Z,1001.85
2022-11-29T07:51:40.909Z,1001.87
2022-11-29T07:57:24.774Z,1001.85
2022-11-29T08:03:08.446Z,1001.88
2022-11-29T08:08:51.509Z,1001.94
2022-11-29T08:14:35.741Z,1002.03
2022-11-29T08:20:19.944Z,1002.12
2022-11-29T08:26:03.922Z,1002.2
2022-11-29T08:31:46.839Z,1002.29
2022-11-29T08:37:30.874Z,1002.28
2022-11-29T08:43:14.054Z,1002.4
2022-11-29T08:48:57.128Z,1002.35
2022-11-29T08:54:40.076Z,1002.37
2022-11-29T09:00:25.150Z,1002.42
2022-11-29T09:06:13.955Z,1002.45
2022-11-29T09:11:57.082Z,1002.43
2022-11-29T09:17:40.029Z,1002.51
2022-11-29T09:23:23.017Z,1002.5
2022-11-29T09:29:06.588Z,1002.55
2022-11-29T09:34:50.628Z,1002.7
2022-11-29T09:40:39.330Z,1002.78
2022-11-29T09:46:27.386Z,1002.85
2022-11-29T09:52:15.102Z,1002.85
2022-11-29T09:58:00.677Z,1002.95
2022-11-29T10:03:45.502Z,1002.95
2022-11-29T10:09:35.078Z,1002.88
2022-11-29T10:15:20.456Z,1002.93
2022-11-29T10:21:05.401Z,1002.97
2022-11-29T10:26:48.308Z,1003.05
2022-11-29T10:32:32.860Z,1003.04
2022-11-29T10:38:30.595Z,1003.04
2022-11-29T10:44:15.045Z,1002.98
2022-11-29T10:49:58.002Z,1003
2022-11-29T10:55:43.824Z,1003.03
2022-11-29T11:01:26.990Z,1003.02
2022-11-29T11:07:15.175Z,1003.11
2022-11-29T11:13:06.138Z,1003.11
2022-11-29T11:18:49.167Z,1003.18
2022-11-29T11:24:33.318Z,1003.19
2022-11-29T11:30:23.221Z,1003.26
2022-11-29T11:36:12.654Z,1003.28
2022-11-29T11:41:55.715Z,1003.22
2022-11-29T11:47:42.951Z,1003.26
2022-11-29T11:53:28.202Z,1003.3
2022-11-29T11:59:16.437Z,1003.29
2022-11-29T12:05:03.466Z,1003.34
2022-11-29T12:10:48.900Z,1003.43
2022-11-29T12:16:35.395Z,1003.6
2022-11-29T12:22:22.915Z,1003.64
2022-11-29T12:28:10.186Z,1003.69
2022-11-29T12:34:05.398Z,1003.75
2022-11-29T12:39:59.764Z,1003.87
2022-11-29T12:45:49.207Z,1003.9
2022-11-29T12:51:35.517Z,1003.95
2022-11-29T12:57:24.081Z,1003.97
2022-11-29T13:03:13.505Z,1004.04
2022-11-29T13:09:02.424Z,1004.06
2022-11-29T13:14:50.921Z,1004.05
2022-11-29T13:20:39.390Z,1004.05
2022-11-29T13:26:24.897Z,1003.9
2022-11-29T13:32:15.094Z,1003.9
2022-11-29T13:38:01.822Z,1003.92
2022-11-29T13:43:48.037Z,1003.94
2022-11-29T13:49:41.931Z,1003.94
2022-11-29T13:55:27.434Z,1003.91
2022-11-29T14:01:12.025Z,1003.89
2022-11-29T14:06:59.914Z,1003.91
2022-11-29T14:12:48.229Z,1003.88
2022-11-29T14:18:42.418Z,1003.83
2022-11-29T14:24:39.095Z,1003.75
2022-11-29T14:30:33.637Z,1003.68
2022-11-29T14:36:32.301Z,1003.72
2022-11-29T14:42:18.048Z,1003.8
2022-11-29T14:48:02.889Z,1003.87
2022-11-29T14:53:48.602Z,1003.94
2022-11-29T14:59:47.402Z,1004.01
2022-11-29T15:05:34.222Z,1004.09
2022-11-29T15:11:21.442Z,1004.09
2022-11-29T15:17:17.207Z,1004.19
2022-11-29T15:23:02.383Z,1004.15
2022-11-29T15:28:46.155Z,1004.25
2022-11-29T15:34:32.897Z,1004.22
2022-11-29T15:40:17.978Z,1004.19
2022-11-29T15:46:01.690Z,1004.25
2022-11-29T15:51:47.375Z,1004.29
2022-11-29T15:57:35.827Z,1004.44
2022-11-29T16:03:21.650Z,1004.54
2022-11-29T16:09:07.516Z,1004.5
2022-11-29T16:14:55.563Z,1004.51
2022-11-29T16:20:39.364Z,1004.6
2022-11-29T16:26:24.516Z,1004.56
2022-11-29T16:32:23.633Z,1004.59
2022-11-29T16:38:12.812Z,1004.6
2022-11-29T16:43:57.020Z,1004.65
2022-11-29T16:49:40.472Z,1004.62
2022-11-29T16:55:23.972Z,1004.64
2022-11-29T17:01:19.792Z,1004.64
2022-11-29T17:07:03.377Z,1004.75
2022-11-29T17:12:49.484Z,1004.71
2022-11-29T17:18:32.892Z,1004.77
2022-11-29T17:24:17.512Z,1004.75
2022-11-29T17:30:02.043Z,1004.75
2022-11-29T17:35:45.370Z,1004.9
2022-11-29T17:41:29.208Z,1004.95
2022-11-29T17:47:13.768Z,1004.89
2022-11-29T17:52:58.831Z,1004.95
2022-11-29T17:58:42.308Z,1005.04
2022-11-29T18:04:25.860Z,1005.08
2022-11-29T18:10:10.207Z,1005.03
2022-11-29T18:15:53.682Z,1005.11
2022-11-29T18:21:37.651Z,1005.11
2022-11-29T18:27:20.895Z,1005.09
2022-11-29T18:33:05.110Z,1005.08
2022-11-29T18:38:49.347Z,1005.16
2022-11-29T18:44:32.712Z,1005.21
2022-11-29T18:50:17.115Z,1005.24
2022-11-29T18:56:04.990Z,1005.24
2022-11-29T19:01:48.991Z,1005.21
2022-11-29T19:07:32.844Z,1005.22
2022-11-29T19:13:15.956Z,1005.33
2022-11-29T19:18:59.885Z,1005.36
2022-11-29T19:24:43.146Z,1005.42
2022-11-29T19:30:27.320Z,1005.55
2022-11-29T19:36:12.951Z,1005.52
2022-11-29T19:41:56.052Z,1005.57
2022-11-29T19:47:39.219Z,1005.55
2022-11-29T19:53:22.494Z,1005.66
2022-11-29T19:59:06.181Z,1005.66
2022-11-29T20:04:49.364Z,1005.77
2022-11-29T20:10:33.381Z,1005.82
2022-11-29T20:16:17.343Z,1005.82
2022-11-29T20:22:00.634Z,1005.88
2022-11-29T20:27:43.479Z,1005.83
2022-11-29T20:33:26.648Z,1005.87
2022-11-29T20:39:14.573Z,1005.9
2022-11-29T20:44:58.695Z,1005.97
2022-11-29T20:50:44.733Z,1006.02
2022-11-29T20:56:30.596Z,1006.04
2022-11-29T21:02:13.680Z,1006.08
2022-11-29T21:07:57.524Z,1006.07
2022-11-29T21:13:41.780Z,1006.1
2022-11-29T21:19:26.556Z,1006.1
2022-11-29T21:25:12.784Z,1006.15
2022-11-29T21:30:58.501Z,1006.15
2022-11-29T21:36:44.715Z,1006.13
2022-11-29T21:42:28.033Z,1006.07
2022-11-29T21:48:11.434Z,1006.04
2022-11-29T21:53:54.882Z,1006.08
2022-11-29T21:59:37.968Z,1006.11
2022-11-29T22:05:21.061Z,1006.11
2022-11-29T22:11:05.637Z,1006.08
2022-11-29T22:16:49.367Z,1006.12
2022-11-29T22:22:32.609Z,1006.12
2022-11-29T22:28:15.700Z,1006.11
2022-11-29T22:33:58.917Z,1006.18
2022-11-29T22:39:41.924Z,1006.18
2022-11-29T22:45:24.969Z,1006.2
2022-11-29T22:51:10.168Z,1006.26
2022-11-29T22:56:53.421Z,1006.28
2022-11-29T23:02:36.589Z,1006.29
2022-11-29T23:08:19.727Z,1006.29
2022-11-29T23:14:04.038Z,1006.38
2022-11-29T23:19:47.204Z,1006.41
2022-11-29T23:25:30.369Z,1006.47
2022-11-29T23:31:14.960Z,1006.5
2022-11-29T23:36:58.319Z,1006.5
2022-11-29T23:42:47.164Z,1006.45
2022-11-29T23:48:30.333Z,1006.47
2022-11-29T23:54:14.515Z,1006.44
2022-11-29T23:59:57.591Z,1006.46
